createdAt,value
2023-05-08T00:00:00.732Z,96624.47
2023-05-08T00:01:32.507Z,96617.38
2023-05-08T00:03:04.217Z,96617.22
2023-05-08T00:04:37.422Z,96619.47
2023-05-08T00:06:09.211Z,96617.25
2023-05-08T00:07:40.999Z,96619.69
2023-05-08T00:09:13.252Z,96619.47
2023-05-08T00:10:44.950Z,96620.44
2023-05-08T00:12:16.561Z,96622.31
2023-05-08T00:13:48.209Z,96625.72
2023-05-08T00:15:19.951Z,96623.53
2023-05-08T00:16:51.647Z,96615.91
2023-05-08T00:18:23.490Z,96632.00
2023-05-08T00:19:56.731Z,96628.50
2023-05-08T00:21:28.395Z,96626.34
2023-05-08T00:23:00.016Z,96631.59
2023-05-08T00:24:31.648Z,96629.47
2023-05-08T00:26:03.358Z,96630.56
2023-05-08T00:27:34.978Z,96631.13
2023-05-08T00:29:07.059Z,96623.56
2023-05-08T00:30:38.787Z,96619.00
2023-05-08T00:32:10.478Z,96618.31
2023-05-08T00:33:42.132Z,96619.41
2023-05-08T00:35:15.117Z,96627.88
2023-05-08T00:36:46.745Z,96625.06
2023-05-08T00:38:18.543Z,96623.19
2023-05-08T00:39:50.383Z,96621.06
2023-05-08T00:41:22.028Z,96620.38
2023-05-08T00:42:53.707Z,96622.38
2023-05-08T00:44:25.318Z,96618.28
2023-05-08T00:45:58.116Z,96618.69
2023-05-08T00:47:29.873Z,96618.31
2023-05-08T00:49:01.546Z,96624.06
2023-05-08T00:50:34.577Z,96615.47
2023-05-08T00:52:09.116Z,96619.56
2023-05-08T00:53:42.921Z,96611.72
2023-05-08T00:55:14.564Z,96619.50
2023-05-08T00:56:46.246Z,96613.59
2023-05-08T00:58:17.947Z,96617.78
2023-05-08T00:59:49.638Z,96617.91
2023-05-08T01:01:21.335Z,96617.81
2023-05-08T01:02:53.137Z,96617.28
2023-05-08T01:04:24.917Z,96615.53
2023-05-08T01:05:57.949Z,96618.41
2023-05-08T01:07:29.617Z,96617.78
2023-05-08T01:09:01.245Z,96620.41
2023-05-08T01:10:35.925Z,96613.44
2023-05-08T01:12:10.788Z,96611.44
2023-05-08T01:13:51.560Z,96615.50
2023-05-08T01:15:26.574Z,96620.97
2023-05-08T01:17:01.984Z,96615.63
2023-05-08T01:18:36.253Z,96610.78
2023-05-08T01:20:15.324Z,96615.47
2023-05-08T01:21:50.448Z,96615.88
2023-05-08T01:23:45.259Z,96614.19
2023-05-08T01:25:44.068Z,96618.28
2023-05-08T01:27:42.025Z,96612.09
2023-05-08T01:29:38.943Z,96615.47
2023-05-08T01:31:18.588Z,96607.47
2023-05-08T01:32:55.511Z,96618.72
2023-05-08T01:34:29.682Z,96615.59
2023-05-08T01:36:07.922Z,96621.88
2023-05-08T01:37:42.149Z,96621.38
2023-05-08T01:39:18.905Z,96619.63
2023-05-08T01:40:52.768Z,96620.47
2023-05-08T01:42:26.486Z,96621.16
2023-05-08T01:44:06.253Z,96619.38
2023-05-08T01:45:39.272Z,96619.53
2023-05-08T01:47:11.469Z,96623.00
2023-05-08T01:48:47.081Z,96615.66
2023-05-08T01:50:21.116Z,96622.19
2023-05-08T01:51:56.676Z,96625.88
2023-05-08T01:53:29.640Z,96624.78
2023-05-08T01:55:03.581Z,96615.03
2023-05-08T01:56:35.210Z,96619.59
2023-05-08T01:58:08.791Z,96622.63
2023-05-08T01:59:40.557Z,96627.72
2023-05-08T02:01:12.934Z,96633.25
2023-05-08T02:02:44.856Z,96628.56
2023-05-08T02:04:18.150Z,96628.25
2023-05-08T02:05:50.720Z,96628.19
2023-05-08T02:07:22.757Z,96637.19
2023-05-08T02:08:54.478Z,96629.19
2023-05-08T02:10:26.295Z,96632.16
2023-05-08T02:11:57.940Z,96632.50
2023-05-08T02:13:29.723Z,96634.13
2023-05-08T02:15:01.512Z,96631.38
2023-05-08T02:16:33.288Z,96624.09
2023-05-08T02:18:05.915Z,96626.88
2023-05-08T02:19:39.736Z,96622.91
2023-05-08T02:21:11.386Z,96627.00
2023-05-08T02:22:43.624Z,96624.28
2023-05-08T02:24:15.483Z,96628.16
2023-05-08T02:25:47.220Z,96624.66
2023-05-08T02:27:19.012Z,96630.38
2023-05-08T02:28:50.971Z,96632.91
2023-05-08T02:30:24.219Z,96631.91
2023-05-08T02:31:56.243Z,96634.38
2023-05-08T02:33:28.103Z,96628.31
2023-05-08T02:35:03.570Z,96633.34
2023-05-08T02:36:35.773Z,96630.41
2023-05-08T02:38:10.902Z,96637.94
2023-05-08T02:39:42.643Z,96634.59
2023-05-08T02:41:14.444Z,96637.66
2023-05-08T02:42:46.901Z,96643.28
2023-05-08T02:44:18.568Z,96634.50
2023-05-08T02:45:52.408Z,96631.16
2023-05-08T02:47:26.062Z,96632.84
2023-05-08T02:48:58.883Z,96630.28
2023-05-08T02:50:35.457Z,96641.41
2023-05-08T02:52:11.645Z,96639.88
2023-05-08T02:53:46.601Z,96627.06
2023-05-08T02:55:25.813Z,96636.94
2023-05-08T02:56:59.912Z,96633.06
2023-05-08T02:58:34.943Z,96640.25
2023-05-08T03:00:11.098Z,96639.56
2023-05-08T03:01:46.183Z,96632.97
2023-05-08T03:03:20.237Z,96632.84
2023-05-08T03:04:53.281Z,96637.25
2023-05-08T03:06:26.340Z,96640.81
2023-05-08T03:08:00.745Z,96636.66
2023-05-08T03:09:39.687Z,96628.88
2023-05-08T03:11:13.128Z,96631.13
2023-05-08T03:12:46.275Z,96630.16
2023-05-08T03:14:20.066Z,96623.47
2023-05-08T03:15:54.208Z,96628.66
2023-05-08T03:17:26.292Z,96622.09
2023-05-08T03:19:00.066Z,96627.47
2023-05-08T03:20:33.898Z,96627.28
2023-05-08T03:22:07.044Z,96622.44
2023-05-08T03:23:38.717Z,96623.09
2023-05-08T03:25:10.765Z,96622.09
2023-05-08T03:26:42.841Z,96625.50
2023-05-08T03:28:14.846Z,96620.56
2023-05-08T03:29:46.794Z,96625.38
2023-05-08T03:31:21.012Z,96624.19
2023-05-08T03:32:52.858Z,96626.00
2023-05-08T03:34:24.527Z,96625.09
2023-05-08T03:35:56.316Z,96618.72
2023-05-08T03:37:29.345Z,96618.56
2023-05-08T03:39:01.086Z,96625.00
2023-05-08T03:40:36.848Z,96623.47
2023-05-08T03:42:08.537Z,96628.47
2023-05-08T03:43:40.235Z,96629.53
2023-05-08T03:45:11.836Z,96632.06
2023-05-08T03:46:43.508Z,96633.06
2023-05-08T03:48:15.661Z,96628.31
2023-05-08T03:49:48.004Z,96628.00
2023-05-08T03:51:19.652Z,96633.16
2023-05-08T03:52:52.632Z,96624.50
2023-05-08T03:54:25.651Z,96632.84
2023-05-08T03:55:57.657Z,96632.44
2023-05-08T03:57:31.436Z,96638.69
2023-05-08T03:59:08.827Z,96634.63
2023-05-08T04:00:46.050Z,96639.88
2023-05-08T04:02:21.974Z,96642.41
2023-05-08T04:04:00.020Z,96635.16
2023-05-08T04:05:37.595Z,96642.63
2023-05-08T04:07:12.484Z,96637.66
2023-05-08T04:08:49.270Z,96632.19
2023-05-08T04:10:24.367Z,96640.88
2023-05-08T04:12:02.033Z,96635.75
2023-05-08T04:13:36.395Z,96639.28
2023-05-08T04:15:10.233Z,96641.53
2023-05-08T04:16:47.592Z,96643.28
2023-05-08T04:18:29.914Z,96639.00
2023-05-08T04:20:04.024Z,96644.88
2023-05-08T04:21:39.261Z,96649.16
2023-05-08T04:23:10.994Z,96652.66
2023-05-08T04:24:47.439Z,96654.72
2023-05-08T04:26:19.107Z,96657.25
2023-05-08T04:27:55.117Z,96655.44
2023-05-08T04:29:29.733Z,96653.22
2023-05-08T04:31:01.536Z,96655.31
2023-05-08T04:32:35.046Z,96661.97
2023-05-08T04:34:09.855Z,96654.41
2023-05-08T04:35:43.826Z,96668.81
2023-05-08T04:37:24.139Z,96664.78
2023-05-08T04:38:59.003Z,96657.25
2023-05-08T04:40:32.159Z,96657.91
2023-05-08T04:42:06.548Z,96657.28
2023-05-08T04:43:49.665Z,96665.69
2023-05-08T04:45:22.543Z,96670.16
2023-05-08T04:46:54.124Z,96666.13
2023-05-08T04:48:35.027Z,96663.34
2023-05-08T04:50:07.361Z,96668.28
2023-05-08T04:51:42.010Z,96666.28
2023-05-08T04:53:14.031Z,96669.78
2023-05-08T04:54:45.820Z,96660.31
2023-05-08T04:56:19.395Z,96667.41
2023-05-08T04:57:53.700Z,96667.84
2023-05-08T04:59:25.897Z,96668.28
2023-05-08T05:00:57.488Z,96669.19
2023-05-08T05:02:29.171Z,96667.16
2023-05-08T05:04:01.404Z,96674.13
2023-05-08T05:05:35.975Z,96662.94
2023-05-08T05:07:08.762Z,96659.38
2023-05-08T05:08:43.230Z,96665.25
2023-05-08T05:10:15.206Z,96665.16
2023-05-08T05:11:50.559Z,96659.13
2023-05-08T05:13:22.247Z,96665.56
2023-05-08T05:14:53.988Z,96663.59
2023-05-08T05:16:25.708Z,96664.38
2023-05-08T05:17:57.465Z,96668.19
2023-05-08T05:19:29.471Z,96667.31
2023-05-08T05:21:01.135Z,96660.56
2023-05-08T05:22:35.766Z,96663.59
2023-05-08T05:24:07.620Z,96670.75
2023-05-08T05:25:39.245Z,96673.81
2023-05-08T05:27:12.561Z,96668.81
2023-05-08T05:28:44.156Z,96669.06
2023-05-08T05:30:16.481Z,96672.84
2023-05-08T05:31:48.293Z,96673.56
2023-05-08T05:33:22.877Z,96677.84
2023-05-08T05:34:54.884Z,96680.59
2023-05-08T05:36:26.832Z,96677.25
2023-05-08T05:37:58.452Z,96680.78
2023-05-08T05:39:30.147Z,96681.09
2023-05-08T05:41:01.787Z,96688.56
2023-05-08T05:42:34.783Z,96681.19
2023-05-08T05:44:06.816Z,96688.22
2023-05-08T05:45:40.097Z,96688.00
2023-05-08T05:47:12.463Z,96682.50
2023-05-08T05:48:46.976Z,96694.81
2023-05-08T05:50:18.753Z,96679.63
2023-05-08T05:51:50.456Z,96683.25
2023-05-08T05:53:24.498Z,96686.41
2023-05-08T05:54:56.212Z,96686.00
2023-05-08T05:56:33.316Z,96686.72
2023-05-08T05:58:06.446Z,96686.31
2023-05-08T05:59:41.356Z,96685.13
2023-05-08T06:01:13.110Z,96689.72
2023-05-08T06:02:45.429Z,96690.13
2023-05-08T06:04:20.263Z,96692.44
2023-05-08T06:05:52.121Z,96690.13
2023-05-08T06:07:24.659Z,96690.06
2023-05-08T06:08:56.649Z,96692.09
2023-05-08T06:10:28.575Z,96692.28
2023-05-08T06:12:00.579Z,96687.22
2023-05-08T06:13:33.910Z,96691.81
2023-05-08T06:15:06.993Z,96691.72
2023-05-08T06:16:38.662Z,96691.41
2023-05-08T06:18:10.425Z,96690.75
2023-05-08T06:19:42.198Z,96702.50
2023-05-08T06:21:14.065Z,96694.41
2023-05-08T06:22:45.709Z,96695.44
2023-05-08T06:24:17.338Z,96690.78
2023-05-08T06:25:49.510Z,96695.19
2023-05-08T06:27:21.280Z,96697.97
2023-05-08T06:28:54.358Z,96700.84
2023-05-08T06:30:26.029Z,96710.09
2023-05-08T06:31:58.334Z,96697.16
2023-05-08T06:33:30.060Z,96701.56
2023-05-08T06:35:01.742Z,96698.78
2023-05-08T06:36:34.878Z,96694.66
2023-05-08T06:38:06.699Z,96702.09
2023-05-08T06:39:38.341Z,96695.78
2023-05-08T06:41:09.957Z,96700.38
2023-05-08T06:42:41.610Z,96701.16
2023-05-08T06:44:14.589Z,96697.25
2023-05-08T06:45:46.355Z,96704.06
2023-05-08T06:47:17.965Z,96700.78
2023-05-08T06:48:49.631Z,96695.00
2023-05-08T06:50:21.550Z,96697.69
2023-05-08T06:51:54.016Z,96702.47
2023-05-08T06:53:27.042Z,96704.06
2023-05-08T06:54:58.762Z,96701.94
2023-05-08T06:56:30.621Z,96704.97
2023-05-08T06:58:02.244Z,96707.81
2023-05-08T06:59:35.323Z,96704.78
2023-05-08T07:01:06.990Z,96708.25
2023-05-08T07:02:38.723Z,96712.31
2023-05-08T07:04:10.447Z,96706.53
2023-05-08T07:05:42.269Z,96711.47
2023-05-08T07:07:14.245Z,96710.34
2023-05-08T07:08:45.926Z,96709.38
2023-05-08T07:10:19.930Z,96704.56
2023-05-08T07:11:51.576Z,96702.88
2023-05-08T07:13:23.461Z,96707.06
2023-05-08T07:14:57.888Z,96703.44
2023-05-08T07:16:29.721Z,96711.47
2023-05-08T07:18:01.693Z,96707.91
2023-05-08T07:19:33.991Z,96708.13
2023-05-08T07:21:05.784Z,96712.66
2023-05-08T07:22:37.523Z,96713.97
2023-05-08T07:24:09.311Z,96704.44
2023-05-08T07:25:41.080Z,96707.53
2023-05-08T07:27:14.499Z,96713.31
2023-05-08T07:28:46.100Z,96707.72
2023-05-08T07:30:19.417Z,96708.38
2023-05-08T07:31:52.078Z,96716.63
2023-05-08T07:33:23.825Z,96714.50
2023-05-08T07:34:56.994Z,96715.69
2023-05-08T07:36:28.895Z,96717.59
2023-05-08T07:38:00.521Z,96715.19
2023-05-08T07:39:32.173Z,96711.28
2023-05-08T07:41:05.259Z,96711.22
2023-05-08T07:42:40.603Z,96715.44
2023-05-08T07:44:12.264Z,96709.94
2023-05-08T07:45:47.717Z,96713.91
2023-05-08T07:47:19.364Z,96704.97
2023-05-08T07:48:51.044Z,96714.16
2023-05-08T07:50:23.198Z,96711.63
2023-05-08T07:51:54.881Z,96708.78
2023-05-08T07:53:26.516Z,96713.78
2023-05-08T07:54:58.298Z,96711.06
2023-05-08T07:56:29.910Z,96708.69
2023-05-08T07:58:01.654Z,96712.75
2023-05-08T07:59:33.317Z,96708.78
2023-05-08T08:01:06.552Z,96719.09
2023-05-08T08:02:38.673Z,96712.16
2023-05-08T08:04:11.075Z,96716.13
2023-05-08T08:05:43.889Z,96712.59
2023-05-08T08:07:15.975Z,96714.31
2023-05-08T08:08:47.578Z,96710.38
2023-05-08T08:10:19.262Z,96716.00
2023-05-08T08:11:53.377Z,96718.56
2023-05-08T08:13:25.147Z,96716.91
2023-05-08T08:14:56.946Z,96716.78
2023-05-08T08:16:29.950Z,96714.88
2023-05-08T08:18:01.844Z,96720.06
2023-05-08T08:19:33.521Z,96719.31
2023-05-08T08:21:06.274Z,96713.28
2023-05-08T08:22:37.968Z,96721.13
2023-05-08T08:24:09.606Z,96722.63
2023-05-08T08:25:44.296Z,96717.25
2023-05-08T08:27:15.920Z,96720.72
2023-05-08T08:28:47.542Z,96726.13
2023-05-08T08:30:19.333Z,96724.41
2023-05-08T08:31:52.290Z,96726.66
2023-05-08T08:33:23.963Z,96729.28
2023-05-08T08:34:55.526Z,96721.66
2023-05-08T08:36:27.182Z,96722.94
2023-05-08T08:37:58.859Z,96729.47
2023-05-08T08:39:34.588Z,96721.28
2023-05-08T08:41:07.188Z,96719.03
2023-05-08T08:42:38.831Z,96726.66
2023-05-08T08:44:10.484Z,96716.91
2023-05-08T08:45:42.621Z,96726.50
2023-05-08T08:47:15.982Z,96719.53
2023-05-08T08:48:47.687Z,96723.16
2023-05-08T08:50:20.084Z,96719.75
2023-05-08T08:51:53.053Z,96719.75
2023-05-08T08:53:26.360Z,96720.09
2023-05-08T08:54:58.647Z,96725.72
2023-05-08T08:56:30.300Z,96715.09
2023-05-08T08:58:11.478Z,96726.25
2023-05-08T08:59:43.251Z,96720.63
2023-05-08T09:01:17.209Z,96721.22
2023-05-08T09:02:50.507Z,96719.50
2023-05-08T09:04:22.531Z,96721.50
2023-05-08T09:05:54.303Z,96724.59
2023-05-08T09:07:26.872Z,96724.88
2023-05-08T09:08:58.659Z,96719.03
2023-05-08T09:10:30.424Z,96724.34
2023-05-08T09:12:02.585Z,96716.06
2023-05-08T09:13:37.313Z,96721.44
2023-05-08T09:15:12.188Z,96720.00
2023-05-08T09:16:44.259Z,96722.84
2023-05-08T09:18:17.649Z,96720.78
2023-05-08T09:19:49.569Z,96720.72
2023-05-08T09:21:24.265Z,96718.03
2023-05-08T09:22:56.112Z,96716.03
2023-05-08T09:24:54.206Z,96717.56
2023-05-08T09:26:32.272Z,96720.97
2023-05-08T09:28:17.981Z,96719.56
2023-05-08T09:30:02.896Z,96719.38
2023-05-08T09:31:35.178Z,96726.75
2023-05-08T09:33:08.524Z,96725.59
2023-05-08T09:34:41.748Z,96722.91
2023-05-08T09:36:25.911Z,96722.75
2023-05-08T09:38:00.712Z,96727.19
2023-05-08T09:39:34.935Z,96721.06
2023-05-08T09:41:10.483Z,96722.13
2023-05-08T09:42:42.157Z,96728.94
2023-05-08T09:44:13.773Z,96732.81
2023-05-08T09:45:45.510Z,96728.97
2023-05-08T09:47:21.280Z,96733.53
2023-05-08T09:48:53.521Z,96738.00
2023-05-08T09:50:29.028Z,96734.00
2023-05-08T09:52:03.719Z,96744.78
2023-05-08T09:53:37.337Z,96742.53
2023-05-08T09:55:21.699Z,96741.69
2023-05-08T09:56:53.338Z,96738.97
2023-05-08T09:58:26.601Z,96743.03
2023-05-08T10:00:03.271Z,96750.31
2023-05-08T10:01:35.735Z,96747.16
2023-05-08T10:03:07.700Z,96742.94
2023-05-08T10:04:39.507Z,96739.97
2023-05-08T10:06:16.099Z,96744.56
2023-05-08T10:07:47.681Z,96742.81
2023-05-08T10:09:19.350Z,96741.41
2023-05-08T10:10:51.177Z,96741.41
2023-05-08T10:12:22.935Z,96743.44
2023-05-08T10:13:54.584Z,96741.53
2023-05-08T10:15:28.544Z,96744.53
2023-05-08T10:17:00.240Z,96742.66
2023-05-08T10:18:31.911Z,96737.56
2023-05-08T10:20:07.138Z,96735.66
2023-05-08T10:21:42.578Z,96735.28
2023-05-08T10:23:15.170Z,96731.47
2023-05-08T10:24:46.760Z,96741.31
2023-05-08T10:26:22.919Z,96736.78
2023-05-08T10:28:05.576Z,96741.44
2023-05-08T10:29:41.589Z,96737.78
2023-05-08T10:31:14.483Z,96744.13
2023-05-08T10:32:46.316Z,96735.31
2023-05-08T10:34:19.577Z,96741.53
2023-05-08T10:35:51.476Z,96742.06
2023-05-08T10:37:24.460Z,96741.25
2023-05-08T10:38:56.372Z,96737.97
2023-05-08T10:40:27.989Z,96735.06
2023-05-08T10:41:59.671Z,96731.91
2023-05-08T10:43:31.484Z,96733.13
2023-05-08T10:45:03.780Z,96729.06
2023-05-08T10:46:39.615Z,96728.19
2023-05-08T10:48:15.100Z,96737.34
2023-05-08T10:49:49.347Z,96723.09
2023-05-08T10:51:23.697Z,96729.94
2023-05-08T10:52:59.854Z,96734.75
2023-05-08T10:54:37.508Z,96727.69
2023-05-08T10:56:09.612Z,96727.84
2023-05-08T10:57:41.266Z,96720.91
2023-05-08T10:59:18.205Z,96717.81
2023-05-08T11:01:15.380Z,96722.63
2023-05-08T11:02:48.165Z,96712.69
2023-05-08T11:04:20.427Z,96716.44
2023-05-08T11:05:52.636Z,96715.44
2023-05-08T11:07:30.794Z,96714.00
2023-05-08T11:09:03.996Z,96713.53
2023-05-08T11:10:39.995Z,96707.50
2023-05-08T11:12:20.014Z,96715.59
2023-05-08T11:13:53.594Z,96704.25
2023-05-08T11:15:36.288Z,96702.56
2023-05-08T11:17:08.743Z,96708.72
2023-05-08T11:19:01.874Z,96705.81
2023-05-08T11:20:39.843Z,96705.50
2023-05-08T11:22:24.851Z,96706.31
2023-05-08T11:23:56.604Z,96701.78
2023-05-08T11:25:43.482Z,96707.22
2023-05-08T11:27:15.282Z,96695.78
2023-05-08T11:28:56.722Z,96696.59
2023-05-08T11:30:36.041Z,96702.09
2023-05-08T11:32:07.831Z,96698.97
2023-05-08T11:33:41.139Z,96707.09
2023-05-08T11:35:13.759Z,96699.00
2023-05-08T11:37:01.537Z,96700.53
2023-05-08T11:38:34.928Z,96699.38
2023-05-08T11:40:40.064Z,96692.78
2023-05-08T11:42:35.101Z,96693.97
2023-05-08T11:44:17.813Z,96692.78
2023-05-08T11:45:49.489Z,96691.19
2023-05-08T11:47:21.613Z,96694.72
2023-05-08T11:48:59.544Z,96693.94
2023-05-08T11:50:31.142Z,96689.31
2023-05-08T11:52:05.920Z,96691.25
2023-05-08T11:53:37.673Z,96691.25
2023-05-08T11:55:10.400Z,96683.09
2023-05-08T11:56:42.196Z,96683.38
2023-05-08T11:58:15.401Z,96686.00
2023-05-08T11:59:49.886Z,96690.06
2023-05-08T12:01:21.572Z,96692.47
2023-05-08T12:02:53.265Z,96686.41
2023-05-08T12:04:24.976Z,96689.34
2023-05-08T12:05:58.234Z,96691.53
2023-05-08T12:07:30.081Z,96692.50
2023-05-08T12:09:01.969Z,96695.38
2023-05-08T12:10:33.646Z,96692.28
2023-05-08T12:12:05.582Z,96697.94
2023-05-08T12:13:38.566Z,96690.66
2023-05-08T12:15:11.651Z,96694.53
2023-05-08T12:16:43.374Z,96692.69
2023-05-08T12:18:15.809Z,96687.41
2023-05-08T12:19:47.536Z,96688.50
2023-05-08T12:21:19.318Z,96683.38
2023-05-08T12:22:51.738Z,96688.28
2023-05-08T12:24:24.292Z,96694.75
2023-05-08T12:25:58.706Z,96692.31
2023-05-08T12:27:30.339Z,96693.56
2023-05-08T12:29:05.438Z,96691.19
2023-05-08T12:30:37.145Z,96696.66
2023-05-08T12:32:17.799Z,96690.50
2023-05-08T12:33:51.639Z,96688.94
2023-05-08T12:35:24.169Z,96681.22
2023-05-08T12:37:10.210Z,96683.53
2023-05-08T12:38:41.873Z,96687.00
2023-05-08T12:40:24.479Z,96680.06
2023-05-08T12:41:56.201Z,96690.50
2023-05-08T12:43:36.521Z,96682.00
2023-05-08T12:45:18.803Z,96687.41
2023-05-08T12:46:51.185Z,96686.63
2023-05-08T12:48:27.536Z,96684.69
2023-05-08T12:49:59.266Z,96689.34
2023-05-08T12:51:31.485Z,96684.31
2023-05-08T12:53:13.075Z,96685.47
2023-05-08T12:54:48.514Z,96687.41
2023-05-08T12:56:22.040Z,96680.47
2023-05-08T12:58:02.277Z,96681.63
2023-05-08T12:59:33.968Z,96686.25
2023-05-08T13:01:10.256Z,96691.63
2023-05-08T13:02:51.229Z,96688.56
2023-05-08T13:04:23.003Z,96685.88
2023-05-08T13:05:55.474Z,96684.66
2023-05-08T13:07:33.449Z,96692.41
2023-05-08T13:09:17.936Z,96691.59
2023-05-08T13:11:46.806Z,96688.13
2023-05-08T13:13:19.299Z,96679.28
2023-05-08T13:14:51.120Z,96686.63
2023-05-08T13:16:30.319Z,96676.19
2023-05-08T13:18:02.158Z,96692.41
2023-05-08T13:19:33.850Z,96689.31
2023-05-08T13:21:11.330Z,96686.59
2023-05-08T13:22:42.949Z,96673.88
2023-05-08T13:24:15.289Z,96687.78
2023-05-08T13:25:52.503Z,96687.34
2023-05-08T13:27:26.995Z,96681.94
2023-05-08T13:28:58.665Z,96684.19
2023-05-08T13:30:30.340Z,96690.19
2023-05-08T13:32:05.951Z,96684.09
2023-05-08T13:33:38.360Z,96687.47
2023-05-08T13:35:17.849Z,96678.88
2023-05-08T13:36:49.776Z,96677.50
2023-05-08T13:38:21.455Z,96682.34
2023-05-08T13:39:53.251Z,96676.75
2023-05-08T13:41:35.741Z,96677.66
2023-05-08T13:43:18.068Z,96674.94
2023-05-08T13:44:49.738Z,96673.00
2023-05-08T13:46:21.420Z,96672.09
2023-05-08T13:47:55.830Z,96664.09
2023-05-08T13:49:27.672Z,96677.03
2023-05-08T13:50:59.390Z,96677.72
2023-05-08T13:52:31.065Z,96678.50
2023-05-08T13:54:02.781Z,96677.53
2023-05-08T13:55:34.578Z,96670.31
2023-05-08T13:57:06.220Z,96675.38
2023-05-08T13:58:37.841Z,96674.16
2023-05-08T14:00:10.434Z,96676.13
2023-05-08T14:01:42.110Z,96677.59
2023-05-08T14:03:15.285Z,96679.66
2023-05-08T14:04:46.982Z,96679.03
2023-05-08T14:06:18.738Z,96675.47
2023-05-08T14:07:50.400Z,96675.84
2023-05-08T14:09:22.131Z,96677.97
2023-05-08T14:10:54.018Z,96675.50
2023-05-08T14:12:25.704Z,96673.22
2023-05-08T14:13:57.601Z,96676.81
2023-05-08T14:15:37.035Z,96674.50
2023-05-08T14:17:09.522Z,96665.84
2023-05-08T14:18:42.572Z,96671.66
2023-05-08T14:20:14.256Z,96665.56
2023-05-08T14:21:46.129Z,96667.09
2023-05-08T14:23:17.766Z,96667.88
2023-05-08T14:24:49.502Z,96665.97
2023-05-08T14:26:21.463Z,96664.06
2023-05-08T14:27:53.168Z,96663.25
2023-05-08T14:29:24.851Z,96665.09
2023-05-08T14:30:56.699Z,96659.44
2023-05-08T14:32:28.512Z,96665.59
2023-05-08T14:34:01.548Z,96665.94
2023-05-08T14:35:33.142Z,96662.91
2023-05-08T14:37:10.419Z,96661.47
2023-05-08T14:38:42.120Z,96666.06
2023-05-08T14:40:14.024Z,96661.31
2023-05-08T14:41:59.413Z,96659.75
2023-05-08T14:43:37.409Z,96663.03
2023-05-08T14:45:09.675Z,96668.78
2023-05-08T14:46:41.408Z,96665.50
2023-05-08T14:48:13.118Z,96662.06
2023-05-08T14:49:46.110Z,96673.84
2023-05-08T14:51:19.300Z,96674.47
2023-05-08T14:52:50.993Z,96678.63
2023-05-08T14:54:22.865Z,96673.16
2023-05-08T14:55:54.963Z,96679.50
2023-05-08T14:57:26.818Z,96675.44
2023-05-08T14:58:58.453Z,96679.56
2023-05-08T15:00:30.158Z,96677.63
2023-05-08T15:02:02.139Z,96681.47
2023-05-08T15:03:33.954Z,96676.81
2023-05-08T15:05:10.892Z,96671.94
2023-05-08T15:06:48.995Z,96668.97
2023-05-08T15:08:20.621Z,96669.75
2023-05-08T15:09:53.323Z,96672.16
2023-05-08T15:11:24.957Z,96670.69
2023-05-08T15:12:56.674Z,96666.75
2023-05-08T15:14:28.312Z,96674.16
2023-05-08T15:15:59.953Z,96669.81
2023-05-08T15:17:33.976Z,96669.97
2023-05-08T15:19:05.650Z,96673.44
2023-05-08T15:20:38.702Z,96670.06
2023-05-08T15:22:10.348Z,96663.16
2023-05-08T15:23:41.949Z,96664.78
2023-05-08T15:25:16.317Z,96659.78
2023-05-08T15:26:48.203Z,96656.03
2023-05-08T15:28:19.821Z,96663.44
2023-05-08T15:29:51.762Z,96661.94
2023-05-08T15:31:23.385Z,96661.53
2023-05-08T15:32:55.027Z,96665.03
2023-05-08T15:34:29.461Z,96664.25
2023-05-08T15:36:06.524Z,96656.94
2023-05-08T15:37:39.007Z,96660.78
2023-05-08T15:39:10.715Z,96663.47
2023-05-08T15:40:42.437Z,96657.28
2023-05-08T15:42:14.094Z,96659.19
2023-05-08T15:43:46.554Z,96658.84
2023-05-08T15:45:18.338Z,96665.31
2023-05-08T15:46:51.234Z,96658.09
2023-05-08T15:48:22.973Z,96663.09
2023-05-08T15:49:54.696Z,96662.31
2023-05-08T15:51:28.723Z,96665.78
2023-05-08T15:53:00.648Z,96663.88
2023-05-08T15:54:32.421Z,96664.25
2023-05-08T15:56:05.636Z,96668.09
2023-05-08T15:57:37.276Z,96666.56
2023-05-08T15:59:08.955Z,96672.72
2023-05-08T16:00:44.636Z,96674.94
2023-05-08T16:02:17.255Z,96665.31
2023-05-08T16:03:49.231Z,96667.28
2023-05-08T16:05:21.004Z,96662.66
2023-05-08T16:06:54.169Z,96658.81
2023-05-08T16:08:26.044Z,96661.13
2023-05-08T16:09:57.651Z,96665.00
2023-05-08T16:11:29.972Z,96651.91
2023-05-08T16:13:01.823Z,96666.56
2023-05-08T16:14:38.257Z,96662.66
2023-05-08T16:16:09.922Z,96659.50
2023-05-08T16:17:41.641Z,96660.25
2023-05-08T16:19:14.851Z,96659.13
2023-05-08T16:20:46.671Z,96652.91
2023-05-08T16:22:19.794Z,96655.66
2023-05-08T16:23:51.406Z,96660.16
2023-05-08T16:25:23.197Z,96660.16
2023-05-08T16:26:54.881Z,96665.94
2023-05-08T16:28:26.700Z,96666.66
2023-05-08T16:29:58.318Z,96663.63
2023-05-08T16:31:29.998Z,96655.91
2023-05-08T16:33:01.730Z,96660.22
2023-05-08T16:34:35.214Z,96660.22
2023-05-08T16:36:07.005Z,96654.69
2023-05-08T16:37:40.022Z,96663.88
2023-05-08T16:39:12.235Z,96665.94
2023-05-08T16:40:45.033Z,96670.22
2023-05-08T16:42:18.707Z,96667.47
2023-05-08T16:43:50.532Z,96670.16
2023-05-08T16:45:22.440Z,96670.56
2023-05-08T16:46:54.224Z,96684.09
2023-05-08T16:48:26.759Z,96684.16
2023-05-08T16:49:58.645Z,96681.78
2023-05-08T16:51:30.804Z,96677.22
2023-05-08T16:53:03.893Z,96676.34
2023-05-08T16:54:35.744Z,96674.63
2023-05-08T16:56:08.083Z,96674.59
2023-05-08T16:57:39.832Z,96677.00
2023-05-08T16:59:11.542Z,96678.59
2023-05-08T17:00:44.818Z,96677.84
2023-05-08T17:02:19.081Z,96666.66
2023-05-08T17:03:53.197Z,96671.63
2023-05-08T17:05:25.249Z,96675.03
2023-05-08T17:06:56.908Z,96679.31
2023-05-08T17:08:29.999Z,96677.88
2023-05-08T17:10:01.685Z,96680.53
2023-05-08T17:11:33.432Z,96677.47
2023-05-08T17:13:05.056Z,96682.47
2023-05-08T17:14:39.291Z,96683.28
2023-05-08T17:16:11.121Z,96680.94
2023-05-08T17:17:42.948Z,96675.97
2023-05-08T17:19:14.598Z,96681.72
2023-05-08T17:20:46.233Z,96679.72
2023-05-08T17:22:20.510Z,96688.56
2023-05-08T17:23:53.517Z,96685.81
2023-05-08T17:25:25.186Z,96681.84
2023-05-08T17:26:56.862Z,96687.22
2023-05-08T17:28:28.687Z,96689.56
2023-05-08T17:30:00.355Z,96682.69
2023-05-08T17:31:32.118Z,96691.94
2023-05-08T17:33:03.980Z,96695.00
2023-05-08T17:34:35.802Z,96693.88
2023-05-08T17:36:08.231Z,96689.81
2023-05-08T17:37:39.848Z,96693.75
2023-05-08T17:39:12.905Z,96693.28
2023-05-08T17:40:45.700Z,96692.44
2023-05-08T17:42:17.321Z,96694.34
2023-05-08T17:43:48.973Z,96695.91
2023-05-08T17:45:20.678Z,96693.28
2023-05-08T17:46:52.372Z,96692.16
2023-05-08T17:48:24.026Z,96697.88
2023-05-08T17:49:55.814Z,96699.56
2023-05-08T17:51:27.434Z,96711.81
2023-05-08T17:52:59.070Z,96716.75
2023-05-08T17:54:32.167Z,96710.28
2023-05-08T17:56:04.026Z,96709.31
2023-05-08T17:57:35.669Z,96712.44
2023-05-08T17:59:07.333Z,96709.00
2023-05-08T18:00:38.989Z,96710.09
2023-05-08T18:02:10.733Z,96704.38
2023-05-08T18:03:44.991Z,96715.16
2023-05-08T18:05:16.824Z,96714.41
2023-05-08T18:06:49.496Z,96704.31
2023-05-08T18:08:21.364Z,96706.28
2023-05-08T18:09:54.397Z,96706.16
2023-05-08T18:11:26.280Z,96706.28
2023-05-08T18:12:58.036Z,96705.91
2023-05-08T18:14:30.720Z,96717.03
2023-05-08T18:16:02.633Z,96712.84
2023-05-08T18:17:34.307Z,96721.31
2023-05-08T18:19:06.101Z,96717.03